Time;durP1;ratioP1;P1;durP2;ratioP2;P2;SDS_P1;SDS_P2;PMS_P1;PMS_P2;Temp;Humidity;BMP_temperature;BMP_pressure;BME280_temperature;BME280_humidity;BME280_pressure;Samples;Min_cycle;Max_cycle;Signal;HPM_P1;HPM_P2
2022/11/12 00:00:18;;;;;;;13.95;10.00;;;;;;;7.47;87.60;101539.03;1085654;54;20054;-79
2022/11/12 00:01:22;;;;;;;12.85;9.85;;;;;;;7.51;87.43;101547.69;1086312;39;20550;-79
2022/11/12 00:02:24;;;;;;;12.55;9.60;;;;;;;7.52;87.51;101537.88;1085723;54;20077;-79
2022/11/12 00:03:28;;;;;;;12.15;9.18;;;;;;;7.55;87.70;101540.38;1085583;54;20042;-79
2022/11/12 00:04:32;;;;;;;14.30;9.05;;;;;;;7.58;87.63;101529.56;1086150;47;20066;-80
2022/11/12 00:05:37;;;;;;;10.70;8.65;;;;;;;7.60;87.58;101536.50;1085813;54;20039;-79
2022/11/12 00:06:38;;;;;;;13.38;9.27;;;;;;;7.64;87.42;101534.53;1085835;54;20122;-79
2022/11/12 00:07:42;;;;;;;10.50;7.78;;;;;;;7.65;87.38;101531.75;1085587;54;20038;-80
2022/11/12 00:08:44;;;;;;;17.88;9.50;;;;;;;7.61;87.72;101532.91;1085981;54;20069;-79
2022/11/12 00:09:48;;;;;;;11.50;8.15;;;;;;;7.63;87.48;101531.03;1085613;54;20039;-80
2022/11/12 00:10:49;;;;;;;10.50;8.02;;;;;;;7.70;87.45;101528.00;1085782;54;20054;-80
2022/11/12 00:11:54;;;;;;;12.25;8.05;;;;;;;7.70;87.20;101526.16;1085743;54;20042;-80
2022/11/12 00:12:55;;;;;;;11.40;8.00;;;;;;;7.74;87.18;101525.06;1085984;54;20039;-79
2022/11/12 00:13:59;;;;;;;11.77;8.50;;;;;;;7.78;87.11;101517.75;1085567;54;20061;-79
2022/11/12 00:15:01;;;;;;;9.45;7.88;;;;;;;7.77;86.88;101524.88;1085858;46;20141;-79
2022/11/12 00:16:05;;;;;;;12.15;7.90;;;;;;;7.79;87.10;101519.47;1085725;54;20722;-79
2022/11/12 00:17:06;;;;;;;15.52;8.93;;;;;;;7.73;86.77;101525.16;1085859;54;20073;-79
2022/11/12 00:18:11;;;;;;;13.07;8.40;;;;;;;7.76;86.89;101530.28;1085632;54;20045;-79
2022/11/12 00:19:12;;;;;;;11.23;8.45;;;;;;;7.77;86.83;101524.00;1085614;54;20072;-79
2022/11/12 00:20:19;;;;;;;11.65;8.23;;;;;;;7.78;86.72;101523.94;1086061;54;20049;-78
2022/11/12 00:21:20;;;;;;;17.65;9.30;;;;;;;7.80;86.66;101526.50;1086677;54;20050;-80
2022/11/12 00:22:25;;;;;;;13.55;9.95;;;;;;;7.79;87.11;101525.63;1086641;54;20045;-79
2022/11/12 00:23:26;;;;;;;27.25;10.80;;;;;;;7.69;87.37;101520.94;1086684;54;20050;-79
2022/11/12 00:24:30;;;;;;;19.15;11.45;;;;;;;7.51;87.93;101518.41;1086779;54;20034;-79
2022/11/12 00:25:32;;;;;;;15.90;10.82;;;;;;;7.56;88.07;101524.31;1086536;54;20039;-79
2022/11/12 00:26:37;;;;;;;14.00;11.15;;;;;;;7.67;88.07;101522.84;1086858;54;20030;-79
2022/11/12 00:27:38;;;;;;;16.10;10.13;;;;;;;7.71;87.52;101527.88;1086735;54;20046;-80
2022/11/12 00:28:42;;;;;;;14.30;9.88;;;;;;;7.75;87.44;101517.91;1086595;54;20038;-79
2022/11/12 00:29:44;;;;;;;9.65;7.65;;;;;;;7.79;87.09;101519.47;1086945;39;20563;-79
2022/11/12 00:30:48;;;;;;;11.88;8.82;;;;;;;7.82;86.97;101519.28;1086629;54;20042;-78
2022/11/12 00:31:49;;;;;;;11.82;8.45;;;;;;;7.78;87.01;101523.94;1086548;54;20098;-79
2022/11/12 00:32:53;;;;;;;22.42;11.90;;;;;;;7.59;87.85;101523.31;1086027;54;20553;-78
2022/11/12 00:33:55;;;;;;;40.65;14.82;;;;;;;7.41;88.50;101517.22;1085844;54;20046;-78
2022/11/12 00:34:59;;;;;;;34.20;14.90;;;;;;;7.31;88.97;101508.94;1086075;54;20596;-78
2022/11/12 00:36:04;;;;;;;52.42;17.67;;;;;;;7.20;90.20;101521.97;1085725;54;21174;-79
2022/11/12 00:37:08;;;;;;;44.63;15.93;;;;;;;7.16;90.34;101523.97;1086293;54;20045;-79
2022/11/12 00:38:10;;;;;;;21.88;15.20;;;;;;;7.26;90.07;101519.84;1086072;54;20065;-79
2022/11/12 00:39:14;;;;;;;21.63;13.95;;;;;;;7.38;89.63;101522.72;1086559;54;20046;-79
2022/11/12 00:40:15;;;;;;;18.88;13.98;;;;;;;7.45;89.11;101526.75;1086601;54;20039;-79
2022/11/12 00:41:19;;;;;;;29.48;15.40;;;;;;;7.35;89.58;101526.41;1086826;39;20437;-80
2022/11/12 00:42:21;;;;;;;25.58;14.27;;;;;;;7.38;89.52;101528.03;1086395;54;20045;-79
2022/11/12 00:43:25;;;;;;;30.25;14.82;;;;;;;7.29;89.63;101521.47;1086390;54;20632;-79
2022/11/12 00:44:28;;;;;;;57.20;17.83;;;;;;;7.11;91.05;101531.31;1086778;39;20509;-78
2022/11/12 00:45:32;;;;;;;55.05;17.10;;;;;;;6.96;91.85;101530.38;1086730;54;20602;-81
2022/11/12 00:46:34;;;;;;;42.92;16.63;;;;;;;6.92;92.37;101529.69;1087185;54;20038;-79
2022/11/12 00:47:38;;;;;;;49.00;17.20;;;;;;;6.87;92.60;101526.44;1086214;54;20045;-79
2022/11/12 00:48:39;;;;;;;33.08;17.20;;;;;;;6.87;93.10;101526.44;1086470;54;20053;-78
2022/11/12 00:49:43;;;;;;;61.58;18.83;;;;;;;6.76;93.30;101520.84;1086571;54;20693;-79
2022/11/12 00:50:45;;;;;;;50.00;17.25;;;;;;;6.75;93.36;101527.09;1086337;54;20082;-79
2022/11/12 00:51:51;;;;;;;41.80;15.60;;;;;;;6.67;93.95;101535.47;1086511;54;20035;-79
2022/11/12 00:52:53;;;;;;;46.35;16.70;;;;;;;6.52;94.19;101534.50;1086242;54;20623;-79
2022/11/12 00:53:57;;;;;;;66.75;17.23;;;;;;;6.53;94.42;101533.56;1086438;54;20038;-79
2022/11/12 00:54:59;;;;;;;39.83;15.63;;;;;;;6.54;93.85;101535.28;1086326;54;20042;-78
2022/11/12 00:56:05;;;;;;;59.28;16.25;;;;;;;6.41;94.33;101529.78;1086230;54;20038;-78
2022/11/12 00:57:06;;;;;;;60.97;16.23;;;;;;;6.33;94.24;101532.81;1086581;54;20026;-79
2022/11/12 00:58:10;;;;;;;37.72;14.98;;;;;;;6.34;94.23;101544.31;1086404;54;20042;-78
2022/11/12 00:59:12;;;;;;;40.67;15.93;;;;;;;6.32;94.45;101539.09;1086479;47;21140;-79
2022/11/12 01:00:19;;;;;;;42.20;15.82;;;;;;;6.23;94.65;101531.63;1086520;54;20943;-78
2022/11/12 01:01:20;;;;;;;47.60;15.70;;;;;;;6.22;94.84;101535.22;1086522;54;20089;-79
2022/11/12 01:02:25;;;;;;;41.83;16.02;;;;;;;6.22;95.03;101532.56;1086649;54;20038;-78
2022/11/12 01:03:27;;;;;;;49.90;16.80;;;;;;;6.14;95.40;101532.94;1086704;54;20046;-78
2022/11/12 01:04:31;;;;;;;43.20;15.65;;;;;;;6.08;95.83;101533.28;1086748;54;20061;-78
2022/11/12 01:05:33;;;;;;;50.95;16.05;;;;;;;5.98;95.84;101543.47;1086746;54;20069;-79
2022/11/12 01:06:41;;;;;;;56.90;16.58;;;;;;;6.04;95.78;101537.88;1086582;54;20655;-78
2022/11/12 01:07:45;;;;;;;47.42;16.25;;;;;;;6.06;95.92;101535.16;1089827;39;20122;-78
2022/11/12 01:08:50;;;;;;;42.50;15.65;;;;;;;6.06;95.61;101546.59;1087836;39;20413;-79
2022/11/12 01:09:51;;;;;;;40.30;16.15;;;;;;;6.00;95.59;101540.78;1086117;54;20050;-78
2022/11/12 01:10:55;;;;;;;42.58;15.15;;;;;;;6.01;95.72;101553.97;1086644;54;20045;-78
2022/11/12 01:11:57;;;;;;;67.43;16.25;;;;;;;6.02;95.70;101544.19;1087191;39;20879;-78
2022/11/12 01:13:01;;;;;;;42.53;15.82;;;;;;;6.03;95.55;101541.47;1086556;54;20042;-78
2022/11/12 01:14:07;;;;;;;39.80;14.07;;;;;;;6.10;95.28;101542.00;1086843;54;20069;-79
2022/11/12 01:15:09;;;;;;;39.35;14.88;;;;;;;6.09;95.22;101543.81;1086814;54;20073;-80
2022/11/12 01:16:18;;;;;;;34.92;13.95;;;;;;;6.05;95.27;101547.53;1086835;54;20870;-78
2022/11/12 01:17:20;;;;;;;35.88;14.57;;;;;;;6.08;95.22;101555.34;1087375;46;20694;-78
2022/11/12 01:18:25;;;;;;;54.65;15.68;;;;;;;6.03;95.20;101548.56;1087776;39;20484;-78
2022/11/12 01:19:26;;;;;;;40.88;15.30;;;;;;;6.05;95.73;101550.19;1086958;54;20050;-78
2022/11/12 01:20:31;;;;;;;30.67;13.85;;;;;;;6.08;95.32;101552.72;1086934;54;20057;-78
2022/11/12 01:21:33;;;;;;;35.38;14.45;;;;;;;6.12;95.32;101553.41;1087039;54;20038;-78
2022/11/12 01:22:37;;;;;;;23.23;13.77;;;;;;;6.17;95.23;101534.56;1087084;54;20031;-78
2022/11/12 01:23:41;;;;;;;22.80;13.57;;;;;;;6.20;94.74;101545.06;1086869;54;20061;-78
2022/11/12 01:24:45;;;;;;;36.35;13.40;;;;;;;6.16;94.79;101541.69;1086872;54;20042;-78
2022/11/12 01:25:47;;;;;;;30.63;13.23;;;;;;;6.20;94.81;101545.91;1087030;54;20065;-78
2022/11/12 01:26:51;;;;;;;33.45;14.23;;;;;;;6.19;94.40;101543.31;1087041;54;20042;-78
2022/11/12 01:27:52;;;;;;;26.42;13.90;;;;;;;6.21;94.30;101538.81;1087053;54;20058;-77
2022/11/12 01:28:57;;;;;;;31.15;14.52;;;;;;;6.22;94.40;101541.38;1087036;54;20022;-78
2022/11/12 01:29:59;;;;;;;33.88;14.95;;;;;;;6.23;94.27;101542.25;1086979;54;20058;-79
2022/11/12 01:31:12;;;;;;;24.88;14.32;;;;;;;6.27;94.23;101534.97;1087197;54;20073;-79
2022/11/12 01:32:13;;;;;;;19.00;13.50;;;;;;;6.33;93.92;101530.16;1087023;54;20061;-78
2022/11/12 01:33:18;;;;;;;19.20;14.02;;;;;;;6.30;93.93;101526.81;1086928;54;20038;-78
2022/11/12 01:34:19;;;;;;;32.65;14.18;;;;;;;6.32;93.83;101520.50;1088994;39;20773;-78
2022/11/12 01:35:23;;;;;;;35.85;15.05;;;;;;;6.22;94.07;101524.59;1088896;39;20281;-78
2022/11/12 01:36:26;;;;;;;39.20;16.30;;;;;;;6.14;94.67;101526.78;1086607;54;20158;-78
2022/11/12 01:37:30;;;;;;;50.42;16.70;;;;;;;6.15;94.84;101520.50;1086825;54;20042;-79
2022/11/12 01:38:33;;;;;;;33.25;15.00;;;;;;;6.14;94.94;101524.13;1086912;54;20038;-77
2022/11/12 01:39:40;;;;;;;39.80;15.57;;;;;;;6.07;95.43;101513.81;1087877;39;20826;-78
2022/11/12 01:40:41;;;;;;;48.90;16.60;;;;;;;6.09;95.81;101521.72;1086971;54;20802;-78
2022/11/12 01:41:45;;;;;;;40.60;15.15;;;;;;;6.08;95.82;101515.53;1087133;54;20049;-79
2022/11/12 01:42:50;;;;;;;37.78;16.05;;;;;;;6.14;95.72;101510.84;1086802;54;20042;-78
2022/11/12 01:44:09;;;;;;;30.15;14.68;;;;;;;6.22;95.24;101514.81;1086898;54;20030;-79
2022/11/12 01:45:14;;;;;;;49.28;14.32;;;;;;;6.19;95.09;101519.44;1086693;54;20042;-79
2022/11/12 01:46:22;;;;;;;42.05;14.73;;;;;;;6.28;94.85;101518.09;1086927;54;20061;-79
2022/11/12 01:47:27;;;;;;;83.50;16.83;;;;;;;6.29;94.65;101517.13;1087077;54;20035;-78
2022/11/12 01:48:36;;;;;;;38.10;13.10;;;;;;;6.41;94.07;101508.53;1086907;54;20038;-78
2022/11/12 01:49:43;;;;;;;37.08;12.15;;;;;;;6.46;93.33;101506.50;1086781;54;20069;-78
2022/11/12 01:50:48;;;;;;;18.90;11.10;;;;;;;6.51;93.16;101517.72;1086898;54;20033;-79
2022/11/12 01:51:53;;;;;;;14.68;10.00;;;;;;;6.57;92.74;101516.53;1088828;39;20501;-79
2022/11/12 01:53:01;;;;;;;15.85;9.82;;;;;;;6.63;92.64;101512.69;1086869;54;20034;-79
2022/11/12 01:54:08;;;;;;;10.70;9.20;;;;;;;6.66;92.13;101509.88;1086879;54;20976;-78
2022/11/12 01:55:18;;;;;;;12.68;9.80;;;;;;;6.70;92.10;101509.63;1086930;54;20010;-79
2022/11/12 01:56:22;;;;;;;15.80;9.43;;;;;;;6.71;91.78;101511.31;1087122;47;20053;-79
2022/11/12 01:57:29;;;;;;;17.30;10.05;;;;;;;6.72;91.46;101507.72;1087387;46;20035;-79
2022/11/12 01:58:32;;;;;;;21.33;10.07;;;;;;;6.76;91.66;101504.91;1086947;54;21078;-79
2022/11/12 01:59:42;;;;;;;26.27;12.00;;;;;;;6.72;91.51;101509.53;1087300;46;20106;-79
2022/11/12 02:00:45;;;;;;;23.40;10.55;;;;;;;6.71;91.38;101503.34;1088073;31;20517;-79
2022/11/12 02:01:50;;;;;;;50.85;13.27;;;;;;;6.68;91.24;101506.19;1087014;54;20042;-79
2022/11/12 02:02:54;;;;;;;13.45;9.77;;;;;;;6.71;91.36;101503.34;1086803;54;20038;-78
2022/11/12 02:03:58;;;;;;;13.35;9.10;;;;;;;6.74;91.03;101499.69;1089358;39;20850;-78
2022/11/12 02:05:01;;;;;;;10.85;8.95;;;;;;;6.79;91.29;101497.59;1086957;54;20035;-79
2022/11/12 02:06:10;;;;;;;23.77;10.98;;;;;;;6.81;91.22;101495.72;1086811;54;20568;-78
2022/11/12 02:07:12;;;;;;;11.55;9.07;;;;;;;6.87;91.28;101502.50;1086902;54;20678;-80
2022/11/12 02:08:18;;;;;;;12.10;8.70;;;;;;;6.90;90.90;101504.97;1086900;54;20046;-79
2022/11/12 02:09:19;;;;;;;21.35;9.63;;;;;;;6.88;90.52;101501.56;1086842;54;20065;-79
2022/11/12 02:10:27;;;;;;;15.10;9.00;;;;;;;6.89;90.44;101502.41;1087331;54;20026;-78
2022/11/12 02:11:28;;;;;;;19.15;10.07;;;;;;;6.86;90.64;101508.75;1087611;54;20035;-79
2022/11/12 02:14:03;;;;;;;17.27;8.85;;;;;;;6.88;91.13;101496.25;1087045;54;20038;-78
2022/11/12 02:15:06;;;;;;;14.25;9.45;;;;;;;6.93;90.83;101510.13;1087228;54;20051;-78
2022/11/12 02:16:12;;;;;;;23.13;9.55;;;;;;;6.93;90.62;101499.50;1087939;46;20155;-78
2022/11/12 02:17:16;;;;;;;9.27;7.72;;;;;;;6.98;90.43;101500.13;1087288;54;20046;-79
2022/11/12 02:18:18;;;;;;;13.00;8.80;;;;;;;6.96;90.52;101495.81;1086979;54;20094;-78
2022/11/12 02:19:22;;;;;;;13.35;8.75;;;;;;;7.00;90.15;101503.53;1087222;54;20093;-78
2022/11/12 02:20:24;;;;;;;31.17;9.65;;;;;;;6.98;90.20;101499.25;1087327;54;20746;-79
2022/11/12 02:21:31;;;;;;;38.30;11.18;;;;;;;6.89;90.32;101497.97;1087156;54;20746;-80
2022/11/12 02:22:33;;;;;;;17.58;9.35;;;;;;;6.89;90.05;101495.31;1087229;54;20057;-77
2022/11/12 02:23:37;;;;;;;19.17;9.75;;;;;;;6.93;90.04;101504.81;1087092;54;20095;-80
2022/11/12 02:24:39;;;;;;;22.85;9.93;;;;;;;6.90;90.16;101491.69;1087156;54;20039;-77
2022/11/12 02:25:43;;;;;;;22.25;9.50;;;;;;;6.94;90.10;101497.72;1087206;54;20045;-79
2022/11/12 02:26:46;;;;;;;24.27;10.30;;;;;;;6.89;89.91;101494.44;1087662;39;20634;-78
2022/11/12 02:27:54;;;;;;;15.23;10.35;;;;;;;6.86;90.08;101491.00;1090402;46;20042;-80
2022/11/12 02:28:55;;;;;;;29.58;11.88;;;;;;;6.84;90.25;101495.56;1087148;54;20066;-78
2022/11/12 02:29:59;;;;;;;13.50;9.70;;;;;;;6.89;90.18;101492.66;1087177;54;20119;-78
2022/11/12 02:31:01;;;;;;;17.63;10.32;;;;;;;6.88;90.36;101498.91;1087154;54;20648;-77
2022/11/12 02:32:05;;;;;;;10.95;9.20;;;;;;;6.92;90.20;101494.28;1087167;54;20038;-78
2022/11/12 02:33:07;;;;;;;17.05;9.95;;;;;;;6.88;90.27;101488.28;1087208;54;20057;-78
2022/11/12 02:34:11;;;;;;;37.45;13.18;;;;;;;6.83;90.39;101487.66;1087043;54;20030;-78
2022/11/12 02:35:12;;;;;;;18.30;10.77;;;;;;;6.82;90.53;101491.25;1087246;54;20042;-79
2022/11/12 02:36:16;;;;;;;19.55;11.02;;;;;;;6.81;90.67;101489.53;1087232;54;20035;-78
2022/11/12 02:37:20;;;;;;;17.63;10.43;;;;;;;6.85;90.66;101491.94;1086578;54;20053;-78
2022/11/12 02:38:25;;;;;;;17.20;10.98;;;;;;;6.87;90.64;101491.88;1087083;54;20061;-77
2022/11/12 02:39:26;;;;;;;30.00;12.75;;;;;;;6.85;90.49;101488.44;1088508;39;20659;-78
2022/11/12 02:40:30;;;;;;;19.00;10.60;;;;;;;6.83;91.00;101490.31;1087210;54;20027;-77
2022/11/12 02:41:32;;;;;;;17.63;9.65;;;;;;;6.83;90.93;101490.31;1087142;54;20035;-77
2022/11/12 02:42:36;;;;;;;24.98;11.40;;;;;;;6.81;90.81;101486.88;1086926;54;20046;-78
2022/11/12 02:43:38;;;;;;;45.97;13.25;;;;;;;6.69;91.37;101491.97;1086975;54;20038;-77
2022/11/12 02:44:42;;;;;;;39.33;13.00;;;;;;;6.61;91.27;101486.22;1087195;54;20030;-78
2022/11/12 02:45:43;;;;;;;12.77;9.80;;;;;;;6.64;91.56;101479.84;1087274;54;20111;-78
2022/11/12 02:46:47;;;;;;;11.27;9.15;;;;;;;6.72;91.63;101491.75;1087579;39;20726;-78
2022/11/12 02:47:49;;;;;;;13.73;8.52;;;;;;;6.78;91.44;101481.75;1087222;54;20070;-79
2022/11/12 02:48:53;;;;;;;21.17;10.43;;;;;;;6.77;91.33;101493.31;1087157;54;20038;-78
2022/11/12 02:49:55;;;;;;;29.65;10.30;;;;;;;6.77;91.14;101494.16;1087150;54;20030;-78
2022/11/12 02:50:59;;;;;;;16.63;8.93;;;;;;;6.76;91.14;101491.59;1088909;46;20026;-78
2022/11/12 02:52:00;;;;;;;62.00;12.45;;;;;;;6.63;90.70;101492.28;1090712;39;20579;-78
2022/11/12 02:53:07;;;;;;;28.30;9.98;;;;;;;6.64;91.17;101493.16;1087845;54;20046;-78
2022/11/12 02:54:08;;;;;;;75.50;13.20;;;;;;;6.48;91.36;101495.78;1087684;54;20042;-78
2022/11/12 02:55:14;;;;;;;79.78;13.07;;;;;;;6.34;91.85;101497.34;1087797;54;20033;-77
2022/11/12 02:56:15;;;;;;;43.20;10.63;;;;;;;6.33;92.23;101495.63;1087838;54;20041;-78
2022/11/12 02:57:19;;;;;;;67.95;13.88;;;;;;;6.26;92.71;101493.41;1088918;39;20306;-77
2022/11/12 02:58:21;;;;;;;35.67;10.32;;;;;;;6.26;92.75;101498.72;1087897;54;20022;-78
2022/11/12 02:59:29;;;;;;;56.55;12.75;;;;;;;6.19;93.07;101491.06;1088000;54;20030;-78
2022/11/12 03:00:31;;;;;;;37.22;10.80;;;;;;;6.16;93.37;101491.25;1088625;46;20046;-78
2022/11/12 03:01:41;;;;;;;42.83;10.77;;;;;;;6.12;93.36;101497.63;1088527;46;20030;-78
2022/11/12 03:02:42;;;;;;;20.70;9.25;;;;;;;6.22;93.50;101490.91;1090217;46;20031;-78
2022/11/12 03:03:46;;;;;;;38.72;10.98;;;;;;;6.20;93.17;101494.59;1092308;39;20323;-77
2022/11/12 03:04:48;;;;;;;48.10;10.43;;;;;;;6.13;92.80;101498.53;1087629;54;20050;-77
2022/11/12 03:05:57;;;;;;;20.05;9.50;;;;;;;6.12;92.97;101502.94;1087992;46;20014;-77
2022/11/12 03:06:59;;;;;;;27.33;9.43;;;;;;;6.16;93.03;101495.69;1087713;47;20083;-77
2022/11/12 03:08:05;;;;;;;13.15;8.70;;;;;;;6.18;92.81;101500.00;1087501;54;20061;-77
2022/11/12 03:09:10;;;;;;;43.80;10.40;;;;;;;6.06;92.52;101498.81;1087363;54;20057;-77
2022/11/12 03:10:14;;;;;;;15.55;9.20;;;;;;;6.06;93.11;101498.81;1087455;54;20106;-77
2022/11/12 03:11:19;;;;;;;20.45;9.20;;;;;;;6.06;92.80;101496.16;1087524;54;20030;-77
2022/11/12 03:12:20;;;;;;;31.67;9.25;;;;;;;6.07;92.99;101497.88;1087568;54;20118;-77
2022/11/12 03:13:24;;;;;;;16.80;7.65;;;;;;;6.08;92.49;101496.09;1087444;54;20049;-77
2022/11/12 03:14:26;;;;;;;21.15;9.25;;;;;;;6.08;92.43;101494.28;1087519;54;20041;-78
2022/11/12 03:15:31;;;;;;;27.33;8.63;;;;;;;6.14;92.99;101503.72;1087524;54;20111;-77
2022/11/12 03:16:33;;;;;;;11.23;7.78;;;;;;;6.19;92.51;101498.19;1087521;54;20030;-78
2022/11/12 03:17:37;;;;;;;9.80;6.82;;;;;;;6.22;92.41;101496.22;1087524;54;20133;-78
2022/11/12 03:18:38;;;;;;;29.23;8.85;;;;;;;6.20;92.14;101494.59;1087466;54;20046;-77
2022/11/12 03:19:43;;;;;;;27.08;10.07;;;;;;;6.12;91.96;101499.44;1087452;54;21426;-78
2022/11/12 03:20:44;;;;;;;19.33;9.25;;;;;;;6.11;91.93;101497.72;1087516;54;20034;-77
2022/11/12 03:21:48;;;;;;;32.17;10.15;;;;;;;6.08;92.54;101507.56;1087468;54;20030;-77
2022/11/12 03:22:58;;;;;;;34.15;10.32;;;;;;;5.93;92.50;101511.00;1087498;54;20031;-77
2022/11/12 03:24:02;;;;;;;22.20;9.88;;;;;;;5.91;92.92;101510.22;1087414;54;20041;-79
2022/11/12 03:25:08;;;;;;;47.50;10.18;;;;;;;5.82;93.05;101508.88;1087566;54;20039;-78
2022/11/12 03:26:12;;;;;;;25.77;9.80;;;;;;;5.87;93.33;101503.31;1087457;54;20729;-77
2022/11/12 03:27:14;;;;;;;11.48;7.45;;;;;;;5.92;93.57;101506.63;1087346;54;20069;-78
2022/11/12 03:28:18;;;;;;;12.13;7.95;;;;;;;5.91;93.25;101502.25;1087489;54;20030;-77
2022/11/12 03:29:20;;;;;;;26.02;9.30;;;;;;;5.89;92.61;101512.94;1088282;39;20606;-78
2022/11/12 03:30:24;;;;;;;24.67;8.50;;;;;;;5.87;92.27;101503.31;1087526;54;20037;-77
2022/11/12 03:31:25;;;;;;;17.92;7.80;;;;;;;5.87;92.23;101503.31;1087447;54;20034;-77
2022/11/12 03:32:29;;;;;;;23.35;8.25;;;;;;;5.86;92.01;101502.47;1087413;54;20033;-78
2022/11/12 03:33:31;;;;;;;19.20;8.00;;;;;;;5.87;91.95;101508.63;1087296;54;20034;-78
2022/11/12 03:34:35;;;;;;;12.65;7.40;;;;;;;5.89;92.27;101504.13;1087478;54;20090;-77
2022/11/12 03:35:37;;;;;;;25.73;8.18;;;;;;;5.90;92.26;101508.50;1087444;54;20038;-77
2022/11/12 03:36:41;;;;;;;17.77;7.90;;;;;;;5.90;91.97;101505.84;1087263;54;20094;-77
2022/11/12 03:37:42;;;;;;;11.20;6.80;;;;;;;5.97;91.75;101509.03;1087243;54;21089;-78
2022/11/12 03:38:46;;;;;;;12.43;7.68;;;;;;;5.93;91.63;101506.53;1087214;54;20057;-77
2022/11/12 03:39:48;;;;;;;27.10;8.48;;;;;;;5.86;91.05;101498.94;1087378;54;20018;-78
2022/11/12 03:40:55;;;;;;;10.85;7.22;;;;;;;5.89;91.11;101504.13;1087555;54;20037;-77
2022/11/12 03:41:56;;;;;;;19.48;8.45;;;;;;;5.85;91.04;101498.09;1087522;54;20035;-77
2022/11/12 03:43:00;;;;;;;11.63;7.40;;;;;;;5.83;91.52;101502.63;1087473;54;20031;-78
2022/11/12 03:44:02;;;;;;;18.85;7.38;;;;;;;5.85;91.41;101499.91;1088328;39;20685;-77
2022/11/12 03:45:07;;;;;;;10.75;7.32;;;;;;;5.85;91.37;101494.59;1087467;54;20030;-77
2022/11/12 03:46:08;;;;;;;19.63;8.52;;;;;;;5.85;91.44;101494.59;1087498;54;20018;-77
2022/11/12 03:47:12;;;;;;;29.42;8.73;;;;;;;5.77;91.33;101493.19;1087545;54;20098;-78
2022/11/12 03:48:14;;;;;;;23.48;8.30;;;;;;;5.75;90.98;101499.50;1087469;54;20858;-77
2022/11/12 03:49:18;;;;;;;14.90;6.53;;;;;;;5.76;91.07;101493.28;1087408;54;20086;-78
2022/11/12 03:50:22;;;;;;;15.93;6.50;;;;;;;5.73;91.30;101496.94;1087966;39;20610;-78
2022/11/12 03:51:26;;;;;;;10.60;6.18;;;;;;;5.76;91.41;101499.41;1086964;54;20057;-81
2022/11/12 03:52:28;;;;;;;12.95;6.90;;;;;;;5.82;91.10;101489.44;1086480;54;20035;-79
2022/11/12 03:53:32;;;;;;;9.75;6.40;;;;;;;5.80;91.13;101486.88;1086632;54;20034;-79
2022/11/12 03:54:33;;;;;;;16.95;7.35;;;;;;;5.74;91.50;101500.44;1087333;31;20595;-79
2022/11/12 03:55:38;;;;;;;8.15;5.65;;;;;;;5.88;91.65;101495.31;1087099;39;20523;-79
2022/11/12 03:56:42;;;;;;;13.63;6.57;;;;;;;5.90;91.12;101488.09;1086660;54;20102;-79
2022/11/12 03:57:48;;;;;;;7.78;5.50;;;;;;;5.95;90.92;101493.19;1086418;54;20133;-79
2022/11/12 03:58:50;;;;;;;9.15;5.97;;;;;;;6.01;90.96;101494.69;1088007;31;20615;-79
2022/11/12 03:59:54;;;;;;;8.23;5.65;;;;;;;5.97;90.71;101487.81;1086567;54;20049;-79
2022/11/12 04:00:58;;;;;;;13.52;6.63;;;;;;;5.94;90.67;101494.13;1086373;54;20036;-79
2022/11/12 04:02:00;;;;;;;9.60;6.65;;;;;;;5.97;90.36;101493.97;1086686;54;20038;-80
2022/11/12 04:03:04;;;;;;;13.20;6.32;;;;;;;5.92;90.40;101499.50;1086684;54;20049;-79
2022/11/12 04:04:05;;;;;;;10.18;5.90;;;;;;;5.93;90.50;101490.59;1086623;54;20035;-80
2022/11/12 04:09:00;;;;;;;17.08;7.10;;;;;;;5.82;91.41;101489.44;1086840;54;20034;-79
2022/11/12 04:10:01;;;;;;;8.70;5.80;;;;;;;5.86;91.49;101486.56;1087012;54;20046;-80
2022/11/12 04:11:06;;;;;;;8.88;5.88;;;;;;;5.93;91.08;101487.09;1087219;54;20046;-79
2022/11/12 04:13:29;;;;;;;7.88;5.28;;;;;;;6.06;90.55;101493.50;1087406;54;20030;-82
2022/11/12 04:14:39;;;;;;;10.52;6.00;;;;;;;6.01;89.45;101492.91;1087458;54;20077;-80
2022/11/12 04:15:43;;;;;;;6.60;5.07;;;;;;;6.05;89.82;101497.09;1087599;54;20038;-80
2022/11/12 04:22:08;;;;;;;6.30;4.68;;;;;;;6.01;89.59;101492.91;1087718;54;20031;-79
2022/11/12 04:23:09;;;;;;;9.02;5.70;;;;;;;5.99;89.44;101497.44;1088437;46;20057;-80
2022/11/12 04:26:21;;;;;;;14.32;6.20;;;;;;;6.00;89.05;101493.84;1087649;54;20038;-78
2022/11/12 04:26:52;;;;;;;10.48;5.45;;;;;;;5.96;89.46;101496.69;1087414;54;20037;-79
2022/11/12 04:27:56;;;;;;;7.28;5.60;;;;;;;5.97;89.14;101493.97;1087707;46;20049;-81
2022/11/12 04:30:17;;;;;;;6.65;4.60;;;;;;;6.02;89.06;101497.28;1086666;54;20046;-79
2022/11/12 04:31:19;;;;;;;6.07;4.68;;;;;;;6.04;89.26;101494.53;1087125;54;20042;-80
2022/11/12 04:32:21;;;;;;;6.25;4.65;;;;;;;6.06;89.04;101504.13;1087588;54;20031;-79
2022/11/12 04:33:26;;;;;;;5.70;4.10;;;;;;;6.12;89.08;101497.63;1087459;54;20090;-79
2022/11/12 04:34:27;;;;;;;6.03;4.07;;;;;;;6.12;88.94;101510.06;1088520;46;20061;-80
2022/11/12 04:35:33;;;;;;;9.32;4.97;;;;;;;6.14;88.97;101501.09;1087956;54;20053;-79
2022/11/12 04:36:35;;;;;;;7.57;4.55;;;;;;;6.09;88.42;101501.31;1087882;54;20438;-79
2022/11/12 04:37:54;;;;;;;6.75;4.20;;;;;;;6.08;88.58;101496.94;1088407;46;20030;-80
2022/11/12 04:38:56;;;;;;;7.45;4.30;;;;;;;6.09;88.76;101493.34;1087728;54;20031;-80
2022/11/12 04:44:58;;;;;;;11.25;5.93;;;;;;;6.00;88.44;101498.31;1087882;54;20030;-80
2022/11/12 04:45:23;;;;;;;6.72;4.30;;;;;;;5.98;88.66;101495.66;1086944;54;20038;-81
2022/11/12 04:46:25;;;;;;;6.32;4.68;;;;;;;6.02;88.50;101501.72;1086687;54;20064;-80
2022/11/12 04:47:31;;;;;;;6.20;4.25;;;;;;;6.04;88.53;101500.72;1086321;54;20034;-80
2022/11/12 04:48:35;;;;;;;6.32;3.83;;;;;;;6.08;88.62;101502.25;1086492;54;20042;-79
2022/11/12 04:49:37;;;;;;;5.63;4.35;;;;;;;6.14;88.47;101502.91;1086883;54;20049;-80
2022/11/12 04:50:43;;;;;;;5.70;3.83;;;;;;;6.16;88.33;101496.56;1087403;54;20034;-79
2022/11/12 04:53:03;;;;;;;5.88;4.10;;;;;;;6.13;88.26;101501.16;1088097;39;20303;-79
2022/11/12 04:54:05;;;;;;;6.55;4.63;;;;;;;6.12;88.51;101495.00;1087449;54;20061;-79
2022/11/12 04:55:10;;;;;;;8.48;4.97;;;;;;;6.12;88.13;101502.94;1088751;46;20171;-81
2022/11/12 04:56:12;;;;;;;6.03;4.38;;;;;;;6.18;88.23;101501.78;1087745;31;20553;-80
2022/11/12 04:57:16;;;;;;;6.47;4.68;;;;;;;6.20;87.92;101502.56;1086721;54;20046;-80
2022/11/12 04:58:20;;;;;;;5.60;4.25;;;;;;;6.19;87.89;101492.88;1086811;54;20158;-80
2022/11/12 04:59:25;;;;;;;5.82;4.47;;;;;;;6.22;87.88;101495.38;1086597;54;20049;-80
2022/11/12 05:00:30;;;;;;;9.63;5.38;;;;;;;6.19;87.70;101504.34;1086604;54;20038;-80
2022/11/12 05:01:31;;;;;;;8.27;5.38;;;;;;;6.21;87.32;101504.28;1086420;54;20058;-80
2022/11/12 05:02:36;;;;;;;7.07;4.53;;;;;;;6.21;87.48;101501.63;1086721;54;20039;-79
2022/11/12 05:03:37;;;;;;;6.82;4.90;;;;;;;6.20;87.20;101507.88;1086477;54;20161;-81
2022/11/12 05:04:41;;;;;;;7.95;4.93;;;;;;;6.22;87.04;101508.66;1086722;54;20038;-80
2022/11/12 05:05:43;;;;;;;14.25;6.35;;;;;;;6.18;86.89;101501.78;1086605;54;20046;-79
2022/11/12 05:06:50;;;;;;;9.35;5.68;;;;;;;6.12;86.69;101504.75;1086612;54;20042;-79
2022/11/12 05:07:54;;;;;;;7.75;5.65;;;;;;;6.07;86.98;101511.16;1086581;54;20037;-79
2022/11/12 05:08:56;;;;;;;7.05;5.45;;;;;;;6.05;87.06;101506.88;1086816;54;20073;-80
2022/11/12 05:10:00;;;;;;;7.60;5.18;;;;;;;6.05;87.38;101507.72;1086589;54;20035;-80
2022/11/12 05:11:01;;;;;;;11.40;5.75;;;;;;;6.01;87.48;101500.88;1086834;54;20050;-79
2022/11/12 05:12:06;;;;;;;10.82;6.28;;;;;;;6.01;87.60;101511.50;1086625;54;20044;-80
2022/11/12 05:13:07;;;;;;;10.02;5.63;;;;;;;5.99;87.49;101501.84;1086677;54;20050;-80
2022/11/12 05:14:11;;;;;;;6.50;5.05;;;;;;;6.02;87.70;101509.69;1086707;54;20030;-80
2022/11/12 05:15:19;;;;;;;6.57;4.80;;;;;;;6.05;87.80;101507.72;1086590;54;20086;-80
2022/11/12 05:16:20;;;;;;;8.10;5.53;;;;;;;6.05;87.93;101506.88;1087849;39;20567;-81